sensor_id;sensor_type;location;lat;lon;timestamp;P1;durP1;ratioP1;P2;durP2;ratioP2
30605;SDS011;17371;51.328;3.860;2022-12-18T00:01:56;82.50;;;29.93;;
30605;SDS011;17371;51.328;3.860;2022-12-18T00:04:23;86.93;;;28.42;;
30605;SDS011;17371;51.328;3.860;2022-12-18T00:06:50;114.10;;;27.37;;
30605;SDS011;17371;51.328;3.860;2022-12-18T00:09:16;94.40;;;28.33;;
30605;SDS011;17371;51.328;3.860;2022-12-18T00:11:41;74.30;;;25.80;;
30605;SDS011;17371;51.328;3.860;2022-12-18T00:14:06;91.78;;;24.20;;
30605;SDS011;17371;51.328;3.860;2022-12-18T00:16:33;73.97;;;24.40;;
30605;SDS011;17371;51.328;3.860;2022-12-18T00:18:59;74.03;;;20.58;;
30605;SDS011;17371;51.328;3.860;2022-12-18T00:21:25;94.18;;;26.73;;
30605;SDS011;17371;51.328;3.860;2022-12-18T00:23:53;77.82;;;25.30;;
30605;SDS011;17371;51.328;3.860;2022-12-18T00:26:19;66.50;;;20.77;;
30605;SDS011;17371;51.328;3.860;2022-12-18T00:28:46;72.63;;;22.85;;
30605;SDS011;17371;51.328;3.860;2022-12-18T00:31:12;69.90;;;21.83;;
30605;SDS011;17371;51.328;3.860;2022-12-18T00:33:40;81.72;;;18.98;;
30605;SDS011;17371;51.328;3.860;2022-12-18T00:36:07;84.13;;;21.70;;
30605;SDS011;17371;51.328;3.860;2022-12-18T00:38:35;92.55;;;24.70;;
30605;SDS011;17371;51.328;3.860;2022-12-18T00:41:02;72.53;;;21.07;;
30605;SDS011;17371;51.328;3.860;2022-12-18T00:43:27;73.10;;;23.15;;
30605;SDS011;17371;51.328;3.860;2022-12-18T00:45:53;83.53;;;22.77;;
30605;SDS011;17371;51.328;3.860;2022-12-18T00:48:18;107.15;;;25.20;;
30605;SDS011;17371;51.328;3.860;2022-12-18T00:50:44;124.10;;;25.30;;
30605;SDS011;17371;51.328;3.860;2022-12-18T00:53:09;107.63;;;25.33;;
30605;SDS011;17371;51.328;3.860;2022-12-18T00:55:35;112.13;;;25.70;;
30605;SDS011;17371;51.328;3.860;2022-12-18T00:58:03;76.53;;;23.02;;
30605;SDS011;17371;51.328;3.860;2022-12-18T01:00:29;58.88;;;18.10;;
30605;SDS011;17371;51.328;3.860;2022-12-18T01:02:54;72.33;;;21.77;;
30605;SDS011;17371;51.328;3.860;2022-12-18T01:05:19;70.20;;;22.37;;
30605;SDS011;17371;51.328;3.860;2022-12-18T01:07:45;80.80;;;22.97;;
30605;SDS011;17371;51.328;3.860;2022-12-18T01:10:11;67.88;;;22.83;;
30605;SDS011;17371;51.328;3.860;2022-12-18T01:12:37;59.85;;;20.23;;
30605;SDS011;17371;51.328;3.860;2022-12-18T01:15:04;88.43;;;22.30;;
30605;SDS011;17371;51.328;3.860;2022-12-18T01:17:31;64.03;;;20.05;;
30605;SDS011;17371;51.328;3.860;2022-12-18T01:19:56;83.13;;;21.30;;
30605;SDS011;17371;51.328;3.860;2022-12-18T01:22:21;76.85;;;22.20;;
30605;SDS011;17371;51.328;3.860;2022-12-18T01:24:47;76.40;;;20.88;;
30605;SDS011;17371;51.328;3.860;2022-12-18T01:27:12;67.90;;;20.37;;
30605;SDS011;17371;51.328;3.860;2022-12-18T01:29:37;71.33;;;21.57;;
30605;SDS011;17371;51.328;3.860;2022-12-18T01:32:04;82.40;;;21.73;;
30605;SDS011;17371;51.328;3.860;2022-12-18T01:34:30;76.50;;;21.90;;
30605;SDS011;17371;51.328;3.860;2022-12-18T01:36:56;73.83;;;21.77;;
30605;SDS011;17371;51.328;3.860;2022-12-18T01:39:21;76.65;;;21.63;;
30605;SDS011;17371;51.328;3.860;2022-12-18T01:41:47;69.53;;;19.83;;
30605;SDS011;17371;51.328;3.860;2022-12-18T01:47:13;63.15;;;21.67;;
30605;SDS011;17371;51.328;3.860;2022-12-18T01:49:40;60.30;;;19.95;;
30605;SDS011;17371;51.328;3.860;2022-12-18T01:52:06;72.83;;;22.50;;
30605;SDS011;17371;51.328;3.860;2022-12-18T01:54:31;76.63;;;24.73;;
30605;SDS011;17371;51.328;3.860;2022-12-18T01:56:57;71.43;;;21.77;;
30605;SDS011;17371;51.328;3.860;2022-12-18T01:59:22;72.87;;;24.03;;
30605;SDS011;17371;51.328;3.860;2022-12-18T02:01:48;73.15;;;25.10;;
30605;SDS011;17371;51.328;3.860;2022-12-18T02:04:19;67.77;;;23.53;;
30605;SDS011;17371;51.328;3.860;2022-12-18T02:06:45;69.00;;;23.67;;
30605;SDS011;17371;51.328;3.860;2022-12-18T02:09:13;67.35;;;23.17;;
30605;SDS011;17371;51.328;3.860;2022-12-18T02:11:42;68.72;;;23.15;;
30605;SDS011;17371;51.328;3.860;2022-12-18T02:14:17;69.18;;;23.92;;
30605;SDS011;17371;51.328;3.860;2022-12-18T02:16:45;66.20;;;23.60;;
30605;SDS011;17371;51.328;3.860;2022-12-18T02:19:23;64.67;;;21.87;;
30605;SDS011;17371;51.328;3.860;2022-12-18T02:22:18;69.03;;;21.75;;
30605;SDS011;17371;51.328;3.860;2022-12-18T02:24:51;57.63;;;21.17;;
30605;SDS011;17371;51.328;3.860;2022-12-18T02:27:24;66.85;;;24.15;;
30605;SDS011;17371;51.328;3.860;2022-12-18T02:29:50;63.20;;;23.60;;
30605;SDS011;17371;51.328;3.860;2022-12-18T02:32:18;60.40;;;22.07;;
30605;SDS011;17371;51.328;3.860;2022-12-18T02:34:45;59.97;;;21.95;;
30605;SDS011;17371;51.328;3.860;2022-12-18T02:37:12;49.28;;;19.85;;
30605;SDS011;17371;51.328;3.860;2022-12-18T02:39:40;59.15;;;20.52;;
30605;SDS011;17371;51.328;3.860;2022-12-18T02:42:07;48.60;;;18.47;;
30605;SDS011;17371;51.328;3.860;2022-12-18T02:44:34;58.50;;;22.20;;
30605;SDS011;17371;51.328;3.860;2022-12-18T02:47:00;68.88;;;25.98;;
30605;SDS011;17371;51.328;3.860;2022-12-18T02:49:28;67.40;;;27.03;;
30605;SDS011;17371;51.328;3.860;2022-12-18T02:52:00;69.88;;;26.42;;
30605;SDS011;17371;51.328;3.860;2022-12-18T02:54:36;56.88;;;23.35;;
30605;SDS011;17371;51.328;3.860;2022-12-18T02:57:10;43.67;;;17.53;;
30605;SDS011;17371;51.328;3.860;2022-12-18T02:59:41;64.22;;;22.75;;
30605;SDS011;17371;51.328;3.860;2022-12-18T03:02:12;48.33;;;19.88;;
30605;SDS011;17371;51.328;3.860;2022-12-18T03:04:43;51.05;;;17.98;;
30605;SDS011;17371;51.328;3.860;2022-12-18T03:07:12;52.92;;;19.38;;
30605;SDS011;17371;51.328;3.860;2022-12-18T03:09:42;52.00;;;18.97;;
30605;SDS011;17371;51.328;3.860;2022-12-18T03:12:10;54.45;;;17.85;;
30605;SDS011;17371;51.328;3.860;2022-12-18T03:14:37;52.30;;;19.48;;
30605;SDS011;17371;51.328;3.860;2022-12-18T03:17:05;47.30;;;18.17;;
30605;SDS011;17371;51.328;3.860;2022-12-18T03:19:34;46.30;;;18.77;;
30605;SDS011;17371;51.328;3.860;2022-12-18T03:22:00;50.95;;;18.65;;
30605;SDS011;17371;51.328;3.860;2022-12-18T03:24:27;58.00;;;20.75;;
30605;SDS011;17371;51.328;3.860;2022-12-18T03:26:57;54.37;;;18.87;;
30605;SDS011;17371;51.328;3.860;2022-12-18T03:29:26;52.58;;;20.83;;
30605;SDS011;17371;51.328;3.860;2022-12-18T03:31:53;61.05;;;23.83;;
30605;SDS011;17371;51.328;3.860;2022-12-18T03:34:23;53.90;;;20.88;;
30605;SDS011;17371;51.328;3.860;2022-12-18T03:36:53;51.85;;;22.02;;
30605;SDS011;17371;51.328;3.860;2022-12-18T03:39:19;57.03;;;22.13;;
30605;SDS011;17371;51.328;3.860;2022-12-18T03:41:45;50.67;;;19.67;;
30605;SDS011;17371;51.328;3.860;2022-12-18T03:44:14;50.75;;;21.05;;
30605;SDS011;17371;51.328;3.860;2022-12-18T03:46:46;51.65;;;18.60;;
30605;SDS011;17371;51.328;3.860;2022-12-18T03:49:17;48.57;;;17.53;;
30605;SDS011;17371;51.328;3.860;2022-12-18T03:51:49;50.25;;;19.13;;
30605;SDS011;17371;51.328;3.860;2022-12-18T03:54:15;55.42;;;21.75;;
30605;SDS011;17371;51.328;3.860;2022-12-18T03:56:43;60.08;;;24.30;;
30605;SDS011;17371;51.328;3.860;2022-12-18T03:59:11;55.25;;;22.33;;
30605;SDS011;17371;51.328;3.860;2022-12-18T04:01:38;56.83;;;21.23;;
30605;SDS011;17371;51.328;3.860;2022-12-18T04:04:05;58.30;;;20.13;;
30605;SDS011;17371;51.328;3.860;2022-12-18T04:06:33;55.88;;;19.48;;
30605;SDS011;17371;51.328;3.860;2022-12-18T04:08:59;52.22;;;19.98;;
30605;SDS011;17371;51.328;3.860;2022-12-18T04:11:24;49.33;;;20.20;;
30605;SDS011;17371;51.328;3.860;2022-12-18T04:13:49;51.53;;;20.47;;
30605;SDS011;17371;51.328;3.860;2022-12-18T04:16:15;50.53;;;18.30;;
30605;SDS011;17371;51.328;3.860;2022-12-18T04:18:41;48.97;;;18.80;;
30605;SDS011;17371;51.328;3.860;2022-12-18T04:21:07;42.70;;;17.07;;
30605;SDS011;17371;51.328;3.860;2022-12-18T04:23:33;51.33;;;17.90;;
30605;SDS011;17371;51.328;3.860;2022-12-18T04:25:59;48.90;;;19.38;;
30605;SDS011;17371;51.328;3.860;2022-12-18T04:28:24;62.77;;;24.60;;
30605;SDS011;17371;51.328;3.860;2022-12-18T04:30:49;51.10;;;18.75;;
30605;SDS011;17371;51.328;3.860;2022-12-18T04:33:15;48.83;;;17.25;;
30605;SDS011;17371;51.328;3.860;2022-12-18T04:35:40;48.47;;;18.57;;
30605;SDS011;17371;51.328;3.860;2022-12-18T04:38:06;44.17;;;16.23;;
30605;SDS011;17371;51.328;3.860;2022-12-18T04:40:33;40.95;;;14.45;;
30605;SDS011;17371;51.328;3.860;2022-12-18T04:42:59;46.95;;;18.75;;
30605;SDS011;17371;51.328;3.860;2022-12-18T04:45:24;47.27;;;17.00;;
30605;SDS011;17371;51.328;3.860;2022-12-18T04:47:50;45.07;;;16.83;;
30605;SDS011;17371;51.328;3.860;2022-12-18T04:50:15;46.37;;;16.63;;
30605;SDS011;17371;51.328;3.860;2022-12-18T04:52:40;44.85;;;16.17;;
30605;SDS011;17371;51.328;3.860;2022-12-18T04:55:06;41.13;;;16.20;;
30605;SDS011;17371;51.328;3.860;2022-12-18T04:57:33;47.13;;;17.13;;
30605;SDS011;17371;51.328;3.860;2022-12-18T04:59:59;45.90;;;15.82;;
30605;SDS011;17371;51.328;3.860;2022-12-18T05:02:24;45.13;;;16.20;;
30605;SDS011;17371;51.328;3.860;2022-12-18T05:04:49;51.47;;;16.80;;
30605;SDS011;17371;51.328;3.860;2022-12-18T05:07:15;40.83;;;16.47;;
30605;SDS011;17371;51.328;3.860;2022-12-18T05:09:40;43.63;;;15.70;;
30605;SDS011;17371;51.328;3.860;2022-12-18T05:12:06;40.13;;;14.90;;
30605;SDS011;17371;51.328;3.860;2022-12-18T05:14:32;41.30;;;15.85;;
30605;SDS011;17371;51.328;3.860;2022-12-18T05:16:58;39.85;;;17.25;;
30605;SDS011;17371;51.328;3.860;2022-12-18T05:19:23;46.30;;;18.17;;
30605;SDS011;17371;51.328;3.860;2022-12-18T05:21:49;50.78;;;17.90;;
30605;SDS011;17371;51.328;3.860;2022-12-18T05:24:14;41.63;;;16.02;;
30605;SDS011;17371;51.328;3.860;2022-12-18T05:26:39;44.23;;;17.00;;
30605;SDS011;17371;51.328;3.860;2022-12-18T05:29:05;45.53;;;17.87;;
30605;SDS011;17371;51.328;3.860;2022-12-18T05:31:31;45.07;;;16.90;;
30605;SDS011;17371;51.328;3.860;2022-12-18T05:33:57;46.38;;;16.92;;
30605;SDS011;17371;51.328;3.860;2022-12-18T05:36:22;41.57;;;15.80;;
30605;SDS011;17371;51.328;3.860;2022-12-18T05:38:48;38.10;;;16.10;;
30605;SDS011;17371;51.328;3.860;2022-12-18T05:41:13;43.77;;;18.20;;
30605;SDS011;17371;51.328;3.860;2022-12-18T05:43:39;45.22;;;16.65;;
30605;SDS011;17371;51.328;3.860;2022-12-18T05:46:05;39.15;;;15.50;;
30605;SDS011;17371;51.328;3.860;2022-12-18T05:48:32;42.00;;;17.20;;
30605;SDS011;17371;51.328;3.860;2022-12-18T05:51:02;43.60;;;15.95;;
30605;SDS011;17371;51.328;3.860;2022-12-18T05:53:29;45.90;;;17.60;;
30605;SDS011;17371;51.328;3.860;2022-12-18T05:55:54;40.93;;;16.30;;
30605;SDS011;17371;51.328;3.860;2022-12-18T05:58:25;39.33;;;15.48;;
30605;SDS011;17371;51.328;3.860;2022-12-18T06:00:50;35.90;;;15.23;;
30605;SDS011;17371;51.328;3.860;2022-12-18T06:03:15;40.83;;;16.83;;
30605;SDS011;17371;51.328;3.860;2022-12-18T06:05:43;40.27;;;15.00;;
30605;SDS011;17371;51.328;3.860;2022-12-18T06:08:09;38.92;;;16.30;;
30605;SDS011;17371;51.328;3.860;2022-12-18T06:10:35;41.60;;;15.50;;
30605;SDS011;17371;51.328;3.860;2022-12-18T06:13:01;42.40;;;14.87;;
30605;SDS011;17371;51.328;3.860;2022-12-18T06:15:26;41.92;;;14.48;;
30605;SDS011;17371;51.328;3.860;2022-12-18T06:17:52;40.77;;;16.17;;
30605;SDS011;17371;51.328;3.860;2022-12-18T06:20:17;37.83;;;13.47;;
30605;SDS011;17371;51.328;3.860;2022-12-18T06:22:44;38.60;;;14.00;;
30605;SDS011;17371;51.328;3.860;2022-12-18T06:25:09;36.00;;;14.73;;
30605;SDS011;17371;51.328;3.860;2022-12-18T06:27:35;40.95;;;14.75;;
30605;SDS011;17371;51.328;3.860;2022-12-18T06:30:00;39.37;;;15.67;;
30605;SDS011;17371;51.328;3.860;2022-12-18T06:32:26;35.83;;;14.53;;
30605;SDS011;17371;51.328;3.860;2022-12-18T06:34:52;36.45;;;14.70;;
30605;SDS011;17371;51.328;3.860;2022-12-18T06:37:17;37.73;;;13.73;;
30605;SDS011;17371;51.328;3.860;2022-12-18T06:39:44;37.07;;;13.60;;
30605;SDS011;17371;51.328;3.860;2022-12-18T06:42:09;33.38;;;14.45;;
30605;SDS011;17371;51.328;3.860;2022-12-18T06:44:34;37.40;;;14.43;;
30605;SDS011;17371;51.328;3.860;2022-12-18T06:47:00;35.60;;;14.03;;
30605;SDS011;17371;51.328;3.860;2022-12-18T06:49:25;23.33;;;10.10;;
30605;SDS011;17371;51.328;3.860;2022-12-18T06:51:51;34.00;;;12.10;;
30605;SDS011;17371;51.328;3.860;2022-12-18T06:54:16;41.57;;;15.00;;
30605;SDS011;17371;51.328;3.860;2022-12-18T06:56:44;24.77;;;9.32;;
30605;SDS011;17371;51.328;3.860;2022-12-18T06:59:09;34.13;;;14.07;;
30605;SDS011;17371;51.328;3.860;2022-12-18T07:01:35;20.00;;;8.57;;
30605;SDS011;17371;51.328;3.860;2022-12-18T07:04:00;28.15;;;12.88;;
30605;SDS011;17371;51.328;3.860;2022-12-18T07:06:25;19.00;;;8.57;;
30605;SDS011;17371;51.328;3.860;2022-12-18T07:08:51;32.00;;;13.23;;
30605;SDS011;17371;51.328;3.860;2022-12-18T07:11:18;32.63;;;12.67;;
30605;SDS011;17371;51.328;3.860;2022-12-18T07:13:45;31.85;;;12.38;;
30605;SDS011;17371;51.328;3.860;2022-12-18T07:16:11;33.15;;;12.05;;
30605;SDS011;17371;51.328;3.860;2022-12-18T07:18:38;33.42;;;13.52;;
30605;SDS011;17371;51.328;3.860;2022-12-18T07:21:05;25.98;;;10.35;;
30605;SDS011;17371;51.328;3.860;2022-12-18T07:23:32;26.70;;;10.77;;
30605;SDS011;17371;51.328;3.860;2022-12-18T07:26:00;32.10;;;12.25;;
30605;SDS011;17371;51.328;3.860;2022-12-18T07:28:26;22.67;;;9.75;;
30605;SDS011;17371;51.328;3.860;2022-12-18T07:30:52;25.10;;;10.00;;
30605;SDS011;17371;51.328;3.860;2022-12-18T07:33:18;27.00;;;11.10;;
30605;SDS011;17371;51.328;3.860;2022-12-18T07:35:43;35.77;;;14.67;;
30605;SDS011;17371;51.328;3.860;2022-12-18T07:38:08;27.37;;;12.00;;
30605;SDS011;17371;51.328;3.860;2022-12-18T07:40:34;20.47;;;8.60;;
30605;SDS011;17371;51.328;3.860;2022-12-18T07:42:59;25.97;;;10.07;;
30605;SDS011;17371;51.328;3.860;2022-12-18T07:45:24;32.87;;;12.00;;
30605;SDS011;17371;51.328;3.860;2022-12-18T07:47:51;14.80;;;5.97;;
30605;SDS011;17371;51.328;3.860;2022-12-18T07:50:17;23.98;;;9.77;;
30605;SDS011;17371;51.328;3.860;2022-12-18T07:52:42;17.73;;;8.10;;
30605;SDS011;17371;51.328;3.860;2022-12-18T07:55:08;20.23;;;8.43;;
30605;SDS011;17371;51.328;3.860;2022-12-18T07:57:33;21.03;;;9.50;;
30605;SDS011;17371;51.328;3.860;2022-12-18T07:59:58;18.33;;;8.03;;
30605;SDS011;17371;51.328;3.860;2022-12-18T08:02:24;27.43;;;10.77;;
30605;SDS011;17371;51.328;3.860;2022-12-18T08:04:51;19.00;;;8.47;;
30605;SDS011;17371;51.328;3.860;2022-12-18T08:07:16;12.00;;;5.25;;
30605;SDS011;17371;51.328;3.860;2022-12-18T08:09:41;19.10;;;8.60;;
30605;SDS011;17371;51.328;3.860;2022-12-18T08:12:07;20.10;;;9.10;;
30605;SDS011;17371;51.328;3.860;2022-12-18T08:14:32;28.02;;;10.13;;
30605;SDS011;17371;51.328;3.860;2022-12-18T08:16:57;22.93;;;9.87;;
30605;SDS011;17371;51.328;3.860;2022-12-18T08:19:24;24.67;;;9.00;;
30605;SDS011;17371;51.328;3.860;2022-12-18T08:21:51;25.15;;;11.63;;
30605;SDS011;17371;51.328;3.860;2022-12-18T08:24:16;5.78;;;2.78;;
30605;SDS011;17371;51.328;3.860;2022-12-18T08:26:42;23.43;;;9.63;;
30605;SDS011;17371;51.328;3.860;2022-12-18T08:29:08;18.07;;;8.23;;
30605;SDS011;17371;51.328;3.860;2022-12-18T08:31:33;19.48;;;7.72;;
30605;SDS011;17371;51.328;3.860;2022-12-18T08:33:59;9.70;;;5.17;;
30605;SDS011;17371;51.328;3.860;2022-12-18T08:36:25;22.20;;;8.50;;
30605;SDS011;17371;51.328;3.860;2022-12-18T08:38:51;19.48;;;7.95;;
30605;SDS011;17371;51.328;3.860;2022-12-18T08:41:17;5.57;;;3.58;;
30605;SDS011;17371;51.328;3.860;2022-12-18T08:43:43;17.23;;;7.37;;
30605;SDS011;17371;51.328;3.860;2022-12-18T08:46:09;26.48;;;12.13;;
30605;SDS011;17371;51.328;3.860;2022-12-18T08:48:34;27.80;;;9.83;;
30605;SDS011;17371;51.328;3.860;2022-12-18T08:51:00;24.17;;;9.85;;
30605;SDS011;17371;51.328;3.860;2022-12-18T08:53:26;24.70;;;9.60;;
30605;SDS011;17371;51.328;3.860;2022-12-18T08:55:53;30.20;;;11.10;;
30605;SDS011;17371;51.328;3.860;2022-12-18T08:58:18;32.03;;;13.33;;
30605;SDS011;17371;51.328;3.860;2022-12-18T09:00:44;25.73;;;11.18;;
30605;SDS011;17371;51.328;3.860;2022-12-18T09:03:10;21.83;;;10.87;;
30605;SDS011;17371;51.328;3.860;2022-12-18T09:05:36;25.27;;;9.20;;
30605;SDS011;17371;51.328;3.860;2022-12-18T09:08:02;25.67;;;11.47;;
30605;SDS011;17371;51.328;3.860;2022-12-18T09:10:27;29.83;;;10.47;;
30605;SDS011;17371;51.328;3.860;2022-12-18T09:12:54;24.30;;;10.17;;
30605;SDS011;17371;51.328;3.860;2022-12-18T09:15:19;26.95;;;10.15;;
30605;SDS011;17371;51.328;3.860;2022-12-18T09:17:45;23.00;;;9.73;;
30605;SDS011;17371;51.328;3.860;2022-12-18T09:20:10;22.93;;;9.90;;
30605;SDS011;17371;51.328;3.860;2022-12-18T09:22:35;16.03;;;7.67;;
30605;SDS011;17371;51.328;3.860;2022-12-18T09:25:01;24.35;;;11.40;;
30605;SDS011;17371;51.328;3.860;2022-12-18T09:27:26;23.90;;;10.07;;
30605;SDS011;17371;51.328;3.860;2022-12-18T09:29:53;16.83;;;7.57;;
30605;SDS011;17371;51.328;3.860;2022-12-18T09:32:18;20.83;;;9.48;;
30605;SDS011;17371;51.328;3.860;2022-12-18T09:34:44;18.47;;;8.13;;
30605;SDS011;17371;51.328;3.860;2022-12-18T09:37:09;23.40;;;10.47;;
30605;SDS011;17371;51.328;3.860;2022-12-18T09:39:35;27.63;;;12.37;;
30605;SDS011;17371;51.328;3.860;2022-12-18T09:42:00;30.80;;;12.63;;
30605;SDS011;17371;51.328;3.860;2022-12-18T09:44:26;28.40;;;12.07;;
30605;SDS011;17371;51.328;3.860;2022-12-18T09:47:00;28.88;;;11.75;;
30605;SDS011;17371;51.328;3.860;2022-12-18T09:49:28;21.33;;;8.80;;
30605;SDS011;17371;51.328;3.860;2022-12-18T09:51:56;27.73;;;12.20;;
30605;SDS011;17371;51.328;3.860;2022-12-18T09:54:24;28.00;;;11.43;;
30605;SDS011;17371;51.328;3.860;2022-12-18T09:56:51;35.40;;;13.57;;
30605;SDS011;17371;51.328;3.860;2022-12-18T09:59:18;29.73;;;14.18;;
30605;SDS011;17371;51.328;3.860;2022-12-18T10:01:47;34.03;;;13.60;;
30605;SDS011;17371;51.328;3.860;2022-12-18T10:04:14;29.85;;;12.00;;
30605;SDS011;17371;51.328;3.860;2022-12-18T10:06:42;31.50;;;12.93;;
30605;SDS011;17371;51.328;3.860;2022-12-18T10:09:12;22.15;;;9.40;;
30605;SDS011;17371;51.328;3.860;2022-12-18T10:11:43;28.20;;;11.77;;
30605;SDS011;17371;51.328;3.860;2022-12-18T10:14:15;25.92;;;11.15;;
30605;SDS011;17371;51.328;3.860;2022-12-18T10:16:47;30.25;;;14.10;;
30605;SDS011;17371;51.328;3.860;2022-12-18T10:19:23;19.07;;;9.57;;
30605;SDS011;17371;51.328;3.860;2022-12-18T10:21:57;33.67;;;14.75;;
30605;SDS011;17371;51.328;3.860;2022-12-18T10:24:29;28.38;;;12.52;;
30605;SDS011;17371;51.328;3.860;2022-12-18T10:26:59;24.67;;;11.13;;
30605;SDS011;17371;51.328;3.860;2022-12-18T10:29:34;19.33;;;9.30;;
30605;SDS011;17371;51.328;3.860;2022-12-18T10:32:00;27.30;;;13.43;;
30605;SDS011;17371;51.328;3.860;2022-12-18T10:34:27;32.67;;;13.03;;
30605;SDS011;17371;51.328;3.860;2022-12-18T10:36:52;30.50;;;12.32;;
30605;SDS011;17371;51.328;3.860;2022-12-18T10:39:18;31.57;;;15.37;;
30605;SDS011;17371;51.328;3.860;2022-12-18T10:41:44;23.05;;;8.95;;
30605;SDS011;17371;51.328;3.860;2022-12-18T10:44:11;32.23;;;13.93;;
30605;SDS011;17371;51.328;3.860;2022-12-18T10:46:39;18.58;;;8.68;;
30605;SDS011;17371;51.328;3.860;2022-12-18T10:49:05;34.58;;;14.52;;
30605;SDS011;17371;51.328;3.860;2022-12-18T10:51:45;29.40;;;12.33;;
30605;SDS011;17371;51.328;3.860;2022-12-18T10:54:13;32.83;;;14.27;;
30605;SDS011;17371;51.328;3.860;2022-12-18T10:56:40;36.35;;;15.50;;
30605;SDS011;17371;51.328;3.860;2022-12-18T10:59:06;30.30;;;14.93;;
30605;SDS011;17371;51.328;3.860;2022-12-18T11:01:45;24.47;;;11.07;;
30605;SDS011;17371;51.328;3.860;2022-12-18T11:04:16;34.78;;;14.27;;
30605;SDS011;17371;51.328;3.860;2022-12-18T11:06:53;19.45;;;10.05;;
30605;SDS011;17371;51.328;3.860;2022-12-18T11:09:21;18.45;;;8.73;;
30605;SDS011;17371;51.328;3.860;2022-12-18T11:11:48;18.00;;;9.10;;
30605;SDS011;17371;51.328;3.860;2022-12-18T11:14:15;26.30;;;12.53;;
30605;SDS011;17371;51.328;3.860;2022-12-18T11:16:45;26.65;;;12.13;;
30605;SDS011;17371;51.328;3.860;2022-12-18T11:19:20;26.92;;;12.50;;
30605;SDS011;17371;51.328;3.860;2022-12-18T11:21:55;21.98;;;10.80;;
30605;SDS011;17371;51.328;3.860;2022-12-18T11:24:22;21.55;;;10.57;;
30605;SDS011;17371;51.328;3.860;2022-12-18T11:26:52;31.63;;;13.47;;
30605;SDS011;17371;51.328;3.860;2022-12-18T11:29:18;31.35;;;13.70;;
30605;SDS011;17371;51.328;3.860;2022-12-18T11:31:48;24.70;;;11.75;;
30605;SDS011;17371;51.328;3.860;2022-12-18T11:34:15;30.73;;;14.25;;
30605;SDS011;17371;51.328;3.860;2022-12-18T11:36:44;29.73;;;13.03;;
30605;SDS011;17371;51.328;3.860;2022-12-18T11:39:12;33.60;;;15.13;;
30605;SDS011;17371;51.328;3.860;2022-12-18T11:41:41;31.58;;;14.65;;
30605;SDS011;17371;51.328;3.860;2022-12-18T11:44:11;31.15;;;14.63;;
30605;SDS011;17371;51.328;3.860;2022-12-18T11:46:41;35.20;;;15.82;;
30605;SDS011;17371;51.328;3.860;2022-12-18T11:49:11;29.93;;;13.30;;
30605;SDS011;17371;51.328;3.860;2022-12-18T11:51:41;30.55;;;14.05;;
30605;SDS011;17371;51.328;3.860;2022-12-18T11:54:09;26.48;;;13.50;;
30605;SDS011;17371;51.328;3.860;2022-12-18T11:56:40;20.15;;;9.65;;
30605;SDS011;17371;51.328;3.860;2022-12-18T11:59:12;28.13;;;13.57;;
30605;SDS011;17371;51.328;3.860;2022-12-18T12:01:44;29.03;;;14.10;;
30605;SDS011;17371;51.328;3.860;2022-12-18T12:04:35;35.20;;;16.17;;
30605;SDS011;17371;51.328;3.860;2022-12-18T12:07:22;30.33;;;15.60;;
30605;SDS011;17371;51.328;3.860;2022-12-18T12:09:58;25.70;;;12.88;;
30605;SDS011;17371;51.328;3.860;2022-12-18T12:12:32;31.00;;;14.48;;
30605;SDS011;17371;51.328;3.860;2022-12-18T12:15:04;32.40;;;15.40;;
30605;SDS011;17371;51.328;3.860;2022-12-18T12:17:32;28.10;;;14.00;;
30605;SDS011;17371;51.328;3.860;2022-12-18T12:20:02;31.73;;;15.05;;
30605;SDS011;17371;51.328;3.860;2022-12-18T12:22:33;27.70;;;12.20;;
30605;SDS011;17371;51.328;3.860;2022-12-18T12:25:28;28.38;;;13.00;;
30605;SDS011;17371;51.328;3.860;2022-12-18T12:28:02;24.80;;;11.50;;
30605;SDS011;17371;51.328;3.860;2022-12-18T12:30:39;12.32;;;6.00;;
30605;SDS011;17371;51.328;3.860;2022-12-18T12:33:14;29.60;;;14.48;;
30605;SDS011;17371;51.328;3.860;2022-12-18T12:35:49;38.35;;;16.75;;
30605;SDS011;17371;51.328;3.860;2022-12-18T12:38:18;35.88;;;14.80;;
30605;SDS011;17371;51.328;3.860;2022-12-18T12:40:48;29.47;;;11.33;;
30605;SDS011;17371;51.328;3.860;2022-12-18T12:43:20;19.65;;;8.25;;
30605;SDS011;17371;51.328;3.860;2022-12-18T12:45:50;33.20;;;16.05;;
30605;SDS011;17371;51.328;3.860;2022-12-18T12:48:28;31.77;;;15.10;;
30605;SDS011;17371;51.328;3.860;2022-12-18T12:50:58;38.00;;;17.17;;
30605;SDS011;17371;51.328;3.860;2022-12-18T12:53:26;37.33;;;16.80;;
30605;SDS011;17371;51.328;3.860;2022-12-18T12:55:55;25.65;;;11.40;;
30605;SDS011;17371;51.328;3.860;2022-12-18T12:58:23;34.58;;;15.65;;
30605;SDS011;17371;51.328;3.860;2022-12-18T13:00:55;37.28;;;16.45;;
30605;SDS011;17371;51.328;3.860;2022-12-18T13:03:29;29.15;;;14.27;;
30605;SDS011;17371;51.328;3.860;2022-12-18T13:06:02;35.23;;;16.87;;
30605;SDS011;17371;51.328;3.860;2022-12-18T13:08:31;33.45;;;16.42;;
30605;SDS011;17371;51.328;3.860;2022-12-18T13:10:58;29.77;;;14.30;;
30605;SDS011;17371;51.328;3.860;2022-12-18T13:13:24;14.63;;;7.53;;
30605;SDS011;17371;51.328;3.860;2022-12-18T13:16:03;32.20;;;15.50;;
30605;SDS011;17371;51.328;3.860;2022-12-18T13:18:29;43.15;;;18.50;;
30605;SDS011;17371;51.328;3.860;2022-12-18T13:21:02;28.10;;;13.03;;
30605;SDS011;17371;51.328;3.860;2022-12-18T13:23:32;35.40;;;15.50;;
30605;SDS011;17371;51.328;3.860;2022-12-18T13:25:59;33.43;;;16.63;;
30605;SDS011;17371;51.328;3.860;2022-12-18T13:28:55;32.85;;;15.45;;
30605;SDS011;17371;51.328;3.860;2022-12-18T13:34:31;34.40;;;14.75;;
30605;SDS011;17371;51.328;3.860;2022-12-18T13:36:57;24.33;;;10.90;;
30605;SDS011;17371;51.328;3.860;2022-12-18T13:40:02;31.58;;;14.90;;
30605;SDS011;17371;51.328;3.860;2022-12-18T13:42:59;28.90;;;15.02;;
30605;SDS011;17371;51.328;3.860;2022-12-18T13:45:41;38.43;;;17.20;;
30605;SDS011;17371;51.328;3.860;2022-12-18T13:48:14;35.30;;;16.85;;
30605;SDS011;17371;51.328;3.860;2022-12-18T13:50:41;38.83;;;18.60;;
30605;SDS011;17371;51.328;3.860;2022-12-18T13:53:11;31.10;;;14.88;;
30605;SDS011;17371;51.328;3.860;2022-12-18T13:55:44;41.07;;;18.67;;
30605;SDS011;17371;51.328;3.860;2022-12-18T13:58:11;28.95;;;14.00;;
30605;SDS011;17371;51.328;3.860;2022-12-18T14:00:40;39.28;;;16.75;;
30605;SDS011;17371;51.328;3.860;2022-12-18T14:03:15;40.78;;;19.13;;
30605;SDS011;17371;51.328;3.860;2022-12-18T14:05:42;33.47;;;16.98;;
30605;SDS011;17371;51.328;3.860;2022-12-18T14:08:10;37.40;;;17.83;;
30605;SDS011;17371;51.328;3.860;2022-12-18T14:10:39;42.83;;;19.13;;
30605;SDS011;17371;51.328;3.860;2022-12-18T14:13:06;38.45;;;19.27;;
30605;SDS011;17371;51.328;3.860;2022-12-18T14:15:34;33.88;;;15.90;;
30605;SDS011;17371;51.328;3.860;2022-12-18T14:18:02;39.72;;;18.30;;
30605;SDS011;17371;51.328;3.860;2022-12-18T14:20:29;39.47;;;18.33;;
30605;SDS011;17371;51.328;3.860;2022-12-18T14:22:56;31.60;;;14.93;;
30605;SDS011;17371;51.328;3.860;2022-12-18T14:25:23;44.53;;;19.02;;
30605;SDS011;17371;51.328;3.860;2022-12-18T14:27:53;37.00;;;16.20;;
30605;SDS011;17371;51.328;3.860;2022-12-18T14:30:29;36.95;;;17.08;;
30605;SDS011;17371;51.328;3.860;2022-12-18T14:32:59;41.57;;;18.33;;
30605;SDS011;17371;51.328;3.860;2022-12-18T14:35:25;43.45;;;19.98;;